Time;durP1;ratioP1;P1;durP2;ratioP2;P2;SDS_P1;SDS_P2;PMS_P1;PMS_P2;Temp;Humidity;BMP_temperature;BMP_pressure;BME280_temperature;BME280_humidity;BME280_pressure;Samples;Min_cycle;Max_cycle;Signal;HPM_P1;HPM_P2
2021/04/05 00:00:48;;;;;;;14.98;9.95;;;;;;;;;;5014645;28;20081;-46
2021/04/05 00:03:14;;;;;;;15.07;9.65;;;;;;;;;;5014643;28;20021;-47
2021/04/05 00:05:40;;;;;;;13.82;9.10;;;;;;;;;;5014532;28;20036;-47
2021/04/05 00:08:07;;;;;;;16.70;9.93;;;;;;;;;;5014465;28;20034;-46
2021/04/05 00:10:44;;;;;;;16.85;10.52;;;;;;;;;;5014667;28;20105;-47
2021/04/05 00:13:13;;;;;;;15.15;9.52;;;;;;;;;;5014442;28;20068;-49
2021/04/05 00:15:39;;;;;;;14.93;9.95;;;;;;;;;;5014331;28;20053;-47
2021/04/05 00:18:05;;;;;;;15.93;9.95;;;;;;;;;;5014324;28;20052;-47
2021/04/05 00:20:36;;;;;;;14.40;10.20;;;;;;;;;;5014554;28;20421;-47
2021/04/05 00:23:02;;;;;;;13.85;9.93;;;;;;;;;;5014341;28;20049;-48
2021/04/05 00:25:29;;;;;;;17.00;10.18;;;;;;;;;;5014626;28;20026;-47
2021/04/05 00:27:55;;;;;;;13.75;9.48;;;;;;;;;;5014285;28;20084;-47
2021/04/05 00:30:23;;;;;;;14.45;10.10;;;;;;;;;;5014106;28;20069;-48
2021/04/05 00:32:50;;;;;;;16.30;10.75;;;;;;;;;;5014091;28;20033;-45
2021/04/05 00:35:17;;;;;;;15.40;10.20;;;;;;;;;;5014018;28;20491;-46
2021/04/05 00:37:44;;;;;;;14.07;10.05;;;;;;;;;;5013854;28;20040;-46
2021/04/05 00:40:12;;;;;;;14.95;9.80;;;;;;;;;;5013980;28;20026;-46
2021/04/05 00:42:39;;;;;;;16.05;10.95;;;;;;;;;;5013879;28;20029;-47
2021/04/05 00:45:07;;;;;;;15.02;10.32;;;;;;;;;;5014072;28;20377;-45
2021/04/05 00:47:34;;;;;;;16.23;10.65;;;;;;;;;;5013678;28;20030;-46
2021/04/05 00:50:00;;;;;;;15.70;10.35;;;;;;;;;;5013950;28;20022;-46
2021/04/05 00:52:26;;;;;;;16.17;10.55;;;;;;;;;;5013858;28;20083;-47
2021/04/05 00:54:52;;;;;;;16.38;11.23;;;;;;;;;;5013309;28;20131;-45
2021/04/05 00:57:18;;;;;;;14.55;10.40;;;;;;;;;;5013599;28;20107;-47
2021/04/05 00:59:45;;;;;;;15.52;10.10;;;;;;;;;;5273565;22;20054;-46
2021/04/05 01:02:12;;;;;;;14.00;10.27;;;;;;;;;;5013758;28;20105;-48
2021/04/05 01:04:38;;;;;;;14.40;9.68;;;;;;;;;;5013668;28;20030;-46
2021/04/05 01:07:04;;;;;;;15.55;10.13;;;;;;;;;;5013450;28;20038;-47
2021/04/05 01:09:30;;;;;;;13.80;10.20;;;;;;;;;;5012304;28;20022;-46
2021/04/05 01:11:57;;;;;;;14.52;9.90;;;;;;;;;;5013451;28;20036;-46
2021/04/05 01:14:23;;;;;;;13.30;9.57;;;;;;;;;;5013250;28;20030;-46
2021/04/05 01:16:49;;;;;;;14.48;9.57;;;;;;;;;;5013255;28;20018;-46
2021/04/05 01:19:15;;;;;;;15.43;10.98;;;;;;;;;;5013195;28;20508;-47
2021/04/05 01:21:47;;;;;;;16.10;10.80;;;;;;;;;;5013154;28;20065;-47
2021/04/05 01:24:13;;;;;;;17.05;10.57;;;;;;;;;;5013266;28;20026;-46
2021/04/05 01:26:39;;;;;;;15.98;10.40;;;;;;;;;;5013223;28;20026;-46
2021/04/05 01:29:06;;;;;;;13.93;10.50;;;;;;;;;;5013395;28;20030;-46
2021/04/05 01:31:32;;;;;;;14.18;10.13;;;;;;;;;;5012874;28;20088;-46
2021/04/05 01:33:58;;;;;;;16.13;9.98;;;;;;;;;;5012923;28;20033;-46
2021/04/05 01:36:24;;;;;;;15.50;9.95;;;;;;;;;;5012914;28;20022;-46
2021/04/05 01:38:51;;;;;;;15.07;9.90;;;;;;;;;;5013111;28;20381;-49
2021/04/05 01:41:17;;;;;;;16.17;10.93;;;;;;;;;;5012805;28;20085;-46
2021/04/05 01:43:44;;;;;;;15.07;10.65;;;;;;;;;;5012798;28;20026;-44
2021/04/05 01:46:11;;;;;;;15.60;10.98;;;;;;;;;;5012720;28;20112;-48
2021/04/05 01:48:38;;;;;;;17.00;10.73;;;;;;;;;;5012793;28;20631;-47
2021/04/05 01:51:04;;;;;;;16.73;10.85;;;;;;;;;;5012677;28;20129;-47
2021/04/05 01:53:30;;;;;;;14.82;10.23;;;;;;;;;;5012539;28;20103;-46
2021/04/05 01:56:03;;;;;;;16.75;9.98;;;;;;;;;;5012553;28;20028;-46
2021/04/05 01:58:30;;;;;;;16.33;10.85;;;;;;;;;;5012434;28;20561;-47
2021/04/05 02:00:57;;;;;;;14.32;10.00;;;;;;;;;;5012076;28;20409;-45
2021/04/05 02:03:23;;;;;;;16.23;10.20;;;;;;;;;;5012359;28;20030;-47
2021/04/05 02:06:15;;;;;;;12.80;8.43;;;;;;;;;;5012380;28;20022;-47
2021/04/05 02:08:42;;;;;;;14.85;9.85;;;;;;;;;;5008700;28;20152;-46
2021/04/05 02:11:10;;;;;;;16.85;10.60;;;;;;;;;;5012455;28;20022;-46
2021/04/05 02:13:37;;;;;;;15.98;10.98;;;;;;;;;;5012238;28;20052;-46
2021/04/05 02:16:03;;;;;;;14.45;9.63;;;;;;;;;;5012093;28;20021;-47
2021/04/05 02:18:29;;;;;;;16.00;10.52;;;;;;;;;;5012323;28;20369;-49
2021/04/05 02:20:55;;;;;;;16.20;10.75;;;;;;;;;;5011701;28;20025;-48
2021/04/05 02:23:24;;;;;;;16.48;11.02;;;;;;;;;;5012067;28;20105;-46
2021/04/05 02:26:11;;;;;;;16.45;10.95;;;;;;;;;;5012055;28;20106;-48
2021/04/05 02:28:42;;;;;;;14.73;9.52;;;;;;;;;;5011846;28;20065;-45
2021/04/05 02:31:09;;;;;;;18.27;11.63;;;;;;;;;;5011979;28;20075;-46
2021/04/05 02:33:36;;;;;;;13.93;9.32;;;;;;;;;;5011923;28;20473;-46
2021/04/05 02:36:02;;;;;;;15.00;9.80;;;;;;;;;;5012168;28;20057;-45
2021/04/05 02:38:28;;;;;;;13.25;8.77;;;;;;;;;;4994267;28;20377;-45
2021/04/05 02:40:55;;;;;;;15.48;10.18;;;;;;;;;;5011884;28;20029;-54
2021/04/05 02:43:21;;;;;;;13.98;9.25;;;;;;;;;;5011864;28;20036;-47
2021/04/05 02:45:47;;;;;;;17.63;9.85;;;;;;;;;;5011685;28;20080;-45
2021/04/05 02:48:14;;;;;;;17.63;10.20;;;;;;;;;;5012037;28;20366;-47
2021/04/05 02:50:40;;;;;;;17.13;10.00;;;;;;;;;;5012038;28;20057;-48
2021/04/05 02:53:07;;;;;;;17.58;10.90;;;;;;;;;;5011774;28;20037;-50
2021/04/05 02:55:34;;;;;;;17.63;10.90;;;;;;;;;;5011721;28;20045;-46
2021/04/05 02:58:00;;;;;;;17.45;10.98;;;;;;;;;;5011671;28;20049;-46
2021/04/05 03:00:27;;;;;;;17.48;10.25;;;;;;;;;;5011333;28;20065;-47
2021/04/05 03:02:54;;;;;;;16.58;10.30;;;;;;;;;;5011665;28;20472;-45
2021/04/05 03:05:24;;;;;;;13.38;8.98;;;;;;;;;;5011613;28;20117;-46
2021/04/05 03:07:50;;;;;;;17.10;10.77;;;;;;;;;;5011530;28;20034;-46
2021/04/05 03:10:18;;;;;;;22.45;12.38;;;;;;;;;;5011622;28;20473;-47
2021/04/05 03:12:45;;;;;;;18.70;11.93;;;;;;;;;;5011738;28;20021;-48
2021/04/05 03:15:12;;;;;;;16.10;11.45;;;;;;;;;;5011635;28;20465;-45
2021/04/05 03:17:39;;;;;;;18.52;11.73;;;;;;;;;;5011536;28;20057;-48
2021/04/05 03:20:08;;;;;;;16.67;10.73;;;;;;;;;;5011603;28;20097;-52
2021/04/05 03:22:35;;;;;;;20.75;12.05;;;;;;;;;;5011534;28;20030;-52
2021/04/05 03:25:01;;;;;;;21.13;12.15;;;;;;;;;;5011520;28;20022;-49
2021/04/05 03:27:27;;;;;;;17.42;11.23;;;;;;;;;;5011299;28;20045;-45
2021/04/05 03:29:54;;;;;;;13.52;9.30;;;;;;;;;;5011415;28;20037;-45
2021/04/05 03:32:21;;;;;;;16.25;10.35;;;;;;;;;;5011614;28;20496;-46
2021/04/05 03:34:54;;;;;;;17.35;10.35;;;;;;;;;;5015519;28;20034;-47
2021/04/05 03:37:21;;;;;;;14.15;9.18;;;;;;;;;;5015149;28;20014;-46
2021/04/05 03:39:51;;;;;;;15.00;9.25;;;;;;;;;;5015239;28;20021;-46
2021/04/05 03:42:31;;;;;;;18.95;11.60;;;;;;;;;;5015215;28;20065;-46
2021/04/05 03:44:59;;;;;;;24.23;12.75;;;;;;;;;;5014970;28;20056;-45
2021/04/05 03:47:32;;;;;;;26.75;13.00;;;;;;;;;;5014747;28;20061;-46
2021/04/05 03:50:12;;;;;;;29.37;14.27;;;;;;;;;;5014940;28;20037;-46
2021/04/05 03:52:46;;;;;;;23.52;12.50;;;;;;;;;;5014875;28;20061;-46
2021/04/05 03:55:12;;;;;;;26.08;13.85;;;;;;;;;;5014839;28;20477;-46
2021/04/05 03:57:45;;;;;;;25.02;12.25;;;;;;;;;;5014738;28;20049;-46
2021/04/05 04:00:13;;;;;;;19.10;11.53;;;;;;;;;;5014526;28;20129;-49
2021/04/05 04:02:45;;;;;;;23.15;11.40;;;;;;;;;;5014720;28;20255;-46
2021/04/05 04:05:35;;;;;;;18.30;11.05;;;;;;;;;;5014491;28;20030;-47
2021/04/05 04:10:47;;;;;;;26.27;12.77;;;;;;;;;;5014883;28;20072;-46
2021/04/05 04:13:15;;;;;;;21.92;13.65;;;;;;;;;;5014466;28;20022;-47
2021/04/05 04:15:42;;;;;;;27.42;14.88;;;;;;;;;;5014642;28;20042;-48
2021/04/05 04:18:08;;;;;;;26.35;15.23;;;;;;;;;;5014196;28;20026;-45
2021/04/05 04:20:34;;;;;;;20.52;12.95;;;;;;;;;;5014245;28;20026;-46
2021/04/05 04:23:00;;;;;;;20.38;11.70;;;;;;;;;;5014536;28;20097;-45
2021/04/05 04:25:27;;;;;;;19.45;12.38;;;;;;;;;;5014208;28;20030;-46
2021/04/05 04:27:53;;;;;;;18.55;11.38;;;;;;;;;;4996943;28;20034;-46
2021/04/05 04:30:33;;;;;;;15.65;10.27;;;;;;;;;;5014293;28;20030;-46
2021/04/05 04:33:06;;;;;;;18.95;11.35;;;;;;;;;;5013928;28;20339;-45
2021/04/05 04:35:32;;;;;;;17.73;11.05;;;;;;;;;;5014009;28;20473;-46
2021/04/05 04:37:59;;;;;;;20.60;11.75;;;;;;;;;;5013966;28;20029;-45
2021/04/05 04:40:26;;;;;;;27.40;13.65;;;;;;;;;;5013953;28;20022;-45
2021/04/05 04:42:55;;;;;;;30.45;17.00;;;;;;;;;;5014058;28;20052;-49
2021/04/05 04:45:21;;;;;;;34.03;16.88;;;;;;;;;;5014018;28;20372;-45
2021/04/05 04:47:47;;;;;;;39.65;20.75;;;;;;;;;;5013751;28;20500;-46
2021/04/05 04:50:14;;;;;;;37.53;19.25;;;;;;;;;;5013763;28;20026;-46
2021/04/05 04:52:40;;;;;;;22.08;12.65;;;;;;;;;;5013722;28;20056;-45
2021/04/05 04:55:07;;;;;;;21.77;11.95;;;;;;;;;;5013728;28;20101;-46
2021/04/05 04:57:33;;;;;;;19.20;12.18;;;;;;;;;;5013588;28;20041;-46
2021/04/05 04:59:59;;;;;;;22.23;13.40;;;;;;;;;;5013385;28;20556;-45
2021/04/05 05:02:25;;;;;;;28.58;14.60;;;;;;;;;;5013619;28;20173;-46
2021/04/05 05:04:53;;;;;;;29.90;15.93;;;;;;;;;;5013575;28;20030;-46
2021/04/05 05:07:20;;;;;;;28.00;14.63;;;;;;;;;;5013510;28;20036;-46
2021/04/05 05:09:46;;;;;;;24.92;14.35;;;;;;;;;;5013466;28;20022;-45
2021/04/05 05:12:13;;;;;;;26.17;14.88;;;;;;;;;;5013393;28;20109;-46
2021/04/05 05:14:39;;;;;;;23.23;14.13;;;;;;;;;;5013314;28;20472;-46
2021/04/05 05:17:07;;;;;;;30.38;15.10;;;;;;;;;;5013044;28;20089;-46
2021/04/05 05:19:37;;;;;;;25.27;14.50;;;;;;;;;;5013453;28;20510;-45
2021/04/05 05:22:05;;;;;;;21.85;12.82;;;;;;;;;;5013490;28;20037;-46
2021/04/05 05:24:32;;;;;;;17.33;11.05;;;;;;;;;;5013076;28;20396;-48
2021/04/05 05:26:58;;;;;;;20.10;11.52;;;;;;;;;;5013014;28;20025;-46
2021/04/05 05:29:25;;;;;;;24.75;13.68;;;;;;;;;;5013220;28;20380;-46
2021/04/05 05:31:51;;;;;;;23.77;13.75;;;;;;;;;;5012915;28;20025;-49
2021/04/05 05:34:19;;;;;;;23.25;13.85;;;;;;;;;;5013197;28;20017;-46
2021/04/05 05:36:45;;;;;;;29.75;14.65;;;;;;;;;;5012874;28;20030;-45
2021/04/05 05:39:12;;;;;;;22.52;12.50;;;;;;;;;;5012826;28;20033;-45
2021/04/05 05:41:38;;;;;;;19.45;11.90;;;;;;;;;;5012770;28;20412;-46
2021/04/05 05:44:08;;;;;;;20.45;12.30;;;;;;;;;;5012775;28;20100;-45
2021/04/05 05:46:42;;;;;;;27.63;15.35;;;;;;;;;;5012780;28;20030;-48
2021/04/05 05:49:27;;;;;;;30.48;16.80;;;;;;;;;;5012387;28;20469;-48
2021/04/05 05:51:56;;;;;;;29.65;15.57;;;;;;;;;;5012722;28;20465;-46
2021/04/05 05:54:34;;;;;;;23.92;13.27;;;;;;;;;;5012556;28;20033;-46
2021/04/05 05:57:09;;;;;;;19.98;11.35;;;;;;;;;;5012561;28;20125;-47
2021/04/05 05:59:48;;;;;;;21.95;13.38;;;;;;;;;;5013082;28;20137;-46
2021/04/05 06:02:20;;;;;;;20.02;11.57;;;;;;;;;;5013243;28;20109;-47
2021/04/05 06:04:58;;;;;;;20.08;12.50;;;;;;;;;;5009161;28;20037;-47
2021/04/05 06:07:42;;;;;;;19.45;11.70;;;;;;;;;;5010974;28;20033;-48
2021/04/05 06:10:21;;;;;;;16.33;10.20;;;;;;;;;;5018126;28;20032;-55
2021/04/05 06:12:56;;;;;;;19.73;12.15;;;;;;;;;;5031208;28;20097;-49
2021/04/05 06:15:25;;;;;;;18.30;12.77;;;;;;;;;;5032305;28;20021;-48
2021/04/05 06:18:10;;;;;;;17.60;10.55;;;;;;;;;;5019538;28;20018;-52
2021/04/05 06:20:48;;;;;;;16.25;11.10;;;;;;;;;;5012385;28;20032;-47
2021/04/05 06:23:17;;;;;;;20.65;12.90;;;;;;;;;;5012221;28;20026;-48
2021/04/05 06:25:52;;;;;;;23.83;13.30;;;;;;;;;;5010305;28;20060;-47
2021/04/05 06:28:39;;;;;;;18.27;12.15;;;;;;;;;;5011126;28;20037;-47
2021/04/05 06:31:06;;;;;;;14.00;9.18;;;;;;;;;;5011909;28;20576;-49
2021/04/05 06:33:37;;;;;;;16.98;10.80;;;;;;;;;;5009271;28;20469;-49
2021/04/05 06:36:09;;;;;;;15.38;10.25;;;;;;;;;;5011928;28;20033;-47
2021/04/05 06:38:44;;;;;;;15.85;10.20;;;;;;;;;;5028127;28;20021;-48
2021/04/05 06:41:20;;;;;;;16.67;10.05;;;;;;;;;;5032192;28;20032;-47
2021/04/05 06:44:01;;;;;;;18.15;11.50;;;;;;;;;;5031663;28;20033;-48
2021/04/05 06:46:46;;;;;;;17.02;10.82;;;;;;;;;;5031564;28;20041;-47
2021/04/05 06:49:30;;;;;;;21.17;12.18;;;;;;;;;;5031191;28;20076;-50
2021/04/05 06:52:17;;;;;;;16.15;9.35;;;;;;;;;;5032035;28;20476;-48
2021/04/05 06:55:01;;;;;;;16.40;9.43;;;;;;;;;;5030974;28;20032;-52
2021/04/05 06:57:50;;;;;;;15.35;9.85;;;;;;;;;;5030386;28;20116;-49
2021/04/05 07:00:25;;;;;;;17.02;9.75;;;;;;;;;;4997440;28;20085;-49
2021/04/05 07:03:10;;;;;;;18.17;10.88;;;;;;;;;;5012371;28;20018;-49
2021/04/05 07:05:36;;;;;;;14.65;9.18;;;;;;;;;;5011813;28;20079;-51
2021/04/05 07:08:25;;;;;;;13.70;8.80;;;;;;;;;;5015180;28;20034;-49
2021/04/05 07:11:11;;;;;;;13.93;9.05;;;;;;;;;;5003746;28;20042;-49
2021/04/05 07:13:56;;;;;;;16.80;10.00;;;;;;;;;;5014915;28;20025;-49
2021/04/05 07:16:34;;;;;;;15.30;10.55;;;;;;;;;;5016065;28;20026;-48
2021/04/05 07:19:18;;;;;;;17.05;10.82;;;;;;;;;;5015328;28;20034;-50
2021/04/05 07:21:47;;;;;;;14.52;9.68;;;;;;;;;;5014576;28;20021;-49
2021/04/05 07:24:13;;;;;;;16.17;10.00;;;;;;;;;;5015869;28;20022;-48
2021/04/05 07:26:58;;;;;;;16.13;10.13;;;;;;;;;;5015732;28;20080;-50
2021/04/05 07:29:30;;;;;;;18.25;10.48;;;;;;;;;;5015927;28;20073;-49
2021/04/05 07:31:56;;;;;;;16.65;9.52;;;;;;;;;;5016050;28;20026;-49
2021/04/05 07:34:28;;;;;;;17.00;9.88;;;;;;;;;;5015235;28;20029;-51
2021/04/05 07:37:10;;;;;;;14.75;9.02;;;;;;;;;;5015410;28;20126;-49
2021/04/05 07:39:43;;;;;;;16.85;10.02;;;;;;;;;;5015618;28;20104;-49
2021/04/05 07:42:21;;;;;;;14.82;8.70;;;;;;;;;;5014945;28;20378;-50
2021/04/05 07:45:06;;;;;;;13.13;8.35;;;;;;;;;;4995896;28;20366;-49
2021/04/05 07:47:34;;;;;;;14.02;8.77;;;;;;;;;;4996301;28;20034;-48
2021/04/05 07:50:05;;;;;;;14.50;9.13;;;;;;;;;;4996168;28;20030;-52
2021/04/05 07:52:47;;;;;;;15.68;8.48;;;;;;;;;;5011517;28;20025;-49
2021/04/05 07:55:13;;;;;;;15.32;8.30;;;;;;;;;;5013909;28;20021;-49
2021/04/05 07:58:01;;;;;;;11.00;7.70;;;;;;;;;;5014802;28;20030;-51
2021/04/05 08:00:34;;;;;;;10.32;7.10;;;;;;;;;;5014559;28;20057;-48
2021/04/05 08:03:06;;;;;;;12.82;8.43;;;;;;;;;;5014260;28;20076;-49
2021/04/05 08:05:46;;;;;;;16.13;9.93;;;;;;;;;;4997320;28;20083;-47
2021/04/05 08:08:30;;;;;;;12.60;8.20;;;;;;;;;;5014752;28;20417;-51
2021/04/05 08:11:02;;;;;;;12.73;7.28;;;;;;;;;;4998037;28;20064;-49
2021/04/05 08:13:29;;;;;;;10.43;6.82;;;;;;;;;;4994079;28;20026;-49
2021/04/05 08:15:58;;;;;;;13.45;8.52;;;;;;;;;;4995198;28;20129;-48
2021/04/05 08:18:27;;;;;;;11.02;7.20;;;;;;;;;;4994623;28;20030;-48
2021/04/05 08:20:59;;;;;;;8.15;5.18;;;;;;;;;;4995203;28;20117;-50
2021/04/05 08:23:25;;;;;;;16.80;7.95;;;;;;;;;;4995304;28;20030;-53
2021/04/05 08:26:00;;;;;;;8.80;6.07;;;;;;;;;;4995125;28;20023;-53
2021/04/05 08:28:35;;;;;;;7.95;4.85;;;;;;;;;;4995111;28;20034;-51
2021/04/05 08:31:20;;;;;;;12.52;7.57;;;;;;;;;;4995084;28;20026;-49
2021/04/05 08:33:46;;;;;;;12.48;7.05;;;;;;;;;;4994434;28;20488;-51
2021/04/05 08:36:21;;;;;;;11.90;6.50;;;;;;;;;;4994908;28;20031;-49
2021/04/05 08:38:51;;;;;;;11.35;6.70;;;;;;;;;;4999090;28;20049;-52
2021/04/05 08:41:17;;;;;;;10.45;6.43;;;;;;;;;;4994916;28;20038;-52
2021/04/05 08:43:46;;;;;;;10.55;6.63;;;;;;;;;;4995064;28;20458;-52
2021/04/05 08:46:13;;;;;;;8.48;5.28;;;;;;;;;;4994893;28;20022;-56
2021/04/05 08:48:42;;;;;;;9.60;5.72;;;;;;;;;;4994498;28;20536;-52
2021/04/05 08:51:12;;;;;;;8.88;5.40;;;;;;;;;;5001851;28;20030;-53
2021/04/05 08:53:40;;;;;;;9.43;5.97;;;;;;;;;;5003970;28;20577;-54
2021/04/05 08:56:07;;;;;;;10.18;6.45;;;;;;;;;;5008573;28;20022;-54
2021/04/05 08:58:36;;;;;;;10.07;6.28;;;;;;;;;;5014354;28;20454;-52
2021/04/05 09:01:04;;;;;;;12.65;5.93;;;;;;;;;;5013987;28;20042;-49
2021/04/05 09:03:32;;;;;;;9.15;5.57;;;;;;;;;;5013236;28;20034;-50
2021/04/05 09:05:59;;;;;;;9.50;5.70;;;;;;;;;;5013677;28;20492;-50
2021/04/05 09:08:27;;;;;;;9.38;5.47;;;;;;;;;;5014009;28;20480;-53
2021/04/05 09:10:54;;;;;;;9.82;5.97;;;;;;;;;;5014075;28;20111;-54
2021/04/05 09:13:24;;;;;;;8.45;5.55;;;;;;;;;;5013782;28;20049;-51
2021/04/05 09:15:54;;;;;;;8.65;5.60;;;;;;;;;;5013862;28;20084;-51
2021/04/05 09:18:23;;;;;;;8.80;5.15;;;;;;;;;;5013934;28;20026;-50
2021/04/05 09:20:55;;;;;;;8.32;5.38;;;;;;;;;;5013795;28;20026;-51
2021/04/05 09:23:33;;;;;;;6.70;4.40;;;;;;;;;;5013791;28;20121;-50
2021/04/05 09:26:00;;;;;;;7.82;4.75;;;;;;;;;;5013873;28;20030;-53
2021/04/05 09:28:33;;;;;;;9.05;5.57;;;;;;;;;;5013799;28;20049;-54
2021/04/05 09:31:14;;;;;;;8.63;5.75;;;;;;;;;;5012554;28;20029;-50
2021/04/05 09:33:57;;;;;;;8.55;5.22;;;;;;;;;;5013439;28;20038;-52
2021/04/05 09:36:29;;;;;;;7.70;4.78;;;;;;;;;;5013601;28;20034;-49
2021/04/05 09:39:12;;;;;;;7.55;5.13;;;;;;;;;;5013555;28;20029;-52
2021/04/05 09:41:57;;;;;;;6.57;4.22;;;;;;;;;;5013563;28;20457;-54
2021/04/05 09:44:26;;;;;;;10.27;5.07;;;;;;;;;;5013352;28;20022;-48
2021/04/05 09:46:58;;;;;;;8.68;4.43;;;;;;;;;;5013466;28;20069;-51
2021/04/05 09:49:43;;;;;;;7.03;4.38;;;;;;;;;;5013562;28;20030;-53
2021/04/05 09:52:09;;;;;;;8.63;5.45;;;;;;;;;;5013115;28;20061;-53
2021/04/05 09:54:55;;;;;;;7.25;4.68;;;;;;;;;;5013585;28;20471;-50
2021/04/05 09:57:26;;;;;;;6.93;4.68;;;;;;;;;;5012899;28;20034;-55
2021/04/05 09:59:54;;;;;;;9.55;4.65;;;;;;;;;;5012934;28;20563;-50
2021/04/05 10:02:43;;;;;;;7.88;4.60;;;;;;;;;;5013002;28;20021;-51
2021/04/05 10:05:11;;;;;;;8.07;5.05;;;;;;;;;;5013076;28;20080;-51
2021/04/05 10:07:40;;;;;;;9.30;5.80;;;;;;;;;;5012964;28;20050;-53
2021/04/05 10:10:06;;;;;;;9.13;5.82;;;;;;;;;;5013191;28;20105;-51
2021/04/05 10:12:33;;;;;;;7.60;4.85;;;;;;;;;;5013030;28;20018;-52
2021/04/05 10:15:00;;;;;;;7.47;5.05;;;;;;;;;;5013085;28;20030;-53
2021/04/05 10:17:27;;;;;;;8.63;5.30;;;;;;;;;;5013073;28;20033;-52
2021/04/05 10:19:57;;;;;;;7.72;4.80;;;;;;;;;;5012921;28;20129;-52
2021/04/05 10:22:23;;;;;;;7.00;4.47;;;;;;;;;;5012877;28;20040;-56
2021/04/05 10:24:52;;;;;;;7.85;4.47;;;;;;;;;;5012839;28;20029;-55
2021/04/05 10:27:20;;;;;;;6.45;3.78;;;;;;;;;;5012807;28;20025;-51
2021/04/05 10:29:50;;;;;;;6.55;4.55;;;;;;;;;;5012931;28;20034;-53
2021/04/05 10:32:19;;;;;;;5.32;3.55;;;;;;;;;;5012969;28;20029;-55
2021/04/05 10:34:46;;;;;;;6.68;3.95;;;;;;;;;;5012983;28;20477;-53
2021/04/05 10:37:17;;;;;;;6.55;4.18;;;;;;;;;;5012490;28;20362;-59
2021/04/05 10:39:53;;;;;;;6.15;4.10;;;;;;;;;;5013324;28;20401;-57
2021/04/05 10:42:23;;;;;;;6.57;3.85;;;;;;;;;;5012489;28;20128;-53
2021/04/05 10:44:50;;;;;;;7.82;3.80;;;;;;;;;;5012477;28;20037;-58
2021/04/05 10:47:22;;;;;;;5.82;4.03;;;;;;;;;;5012416;28;20032;-57
2021/04/05 10:49:49;;;;;;;5.50;3.58;;;;;;;;;;5012828;28;20084;-59
2021/04/05 10:52:20;;;;;;;8.25;4.10;;;;;;;;;;5012329;28;20034;-53
2021/04/05 10:54:49;;;;;;;10.15;4.72;;;;;;;;;;5012587;28;20064;-56
2021/04/05 10:57:18;;;;;;;6.70;4.00;;;;;;;;;;5012481;28;20022;-58
2021/04/05 10:59:50;;;;;;;5.97;3.95;;;;;;;;;;5012108;28;20081;-53
2021/04/05 11:02:40;;;;;;;6.57;4.65;;;;;;;;;;5012436;28;20339;-59
2021/04/05 11:05:13;;;;;;;6.57;4.03;;;;;;;;;;5012651;28;20021;-57
2021/04/05 11:07:39;;;;;;;;;;;;;;;;;;4995215;28;20038;-53
2021/04/05 11:10:06;;;;;;;6.25;4.07;;;;;;;;;;5012384;28;19905;-55
2021/04/05 11:12:40;;;;;;;6.03;3.97;;;;;;;;;;5012389;28;20076;-56
2021/04/05 11:15:11;;;;;;;8.65;4.32;;;;;;;;;;5012614;28;20084;-55
2021/04/05 11:17:41;;;;;;;5.45;3.42;;;;;;;;;;5012356;28;20369;-57
2021/04/05 11:20:08;;;;;;;5.70;3.35;;;;;;;;;;5012310;28;20161;-59
2021/04/05 11:22:35;;;;;;;5.90;3.67;;;;;;;;;;5011774;28;20036;-56
2021/04/05 11:25:02;;;;;;;7.25;4.15;;;;;;;;;;5012197;28;20022;-55
2021/04/05 11:27:29;;;;;;;5.32;3.55;;;;;;;;;;5011812;28;20462;-59
2021/04/05 11:29:57;;;;;;;5.57;3.63;;;;;;;;;;5012556;28;20083;-57
2021/04/05 11:32:27;;;;;;;5.40;3.58;;;;;;;;;;5012110;28;20438;-58
2021/04/05 11:34:54;;;;;;;6.30;3.92;;;;;;;;;;5012198;28;20037;-56
2021/04/05 11:37:21;;;;;;;5.32;3.58;;;;;;;;;;5011988;28;20029;-52
2021/04/05 11:39:55;;;;;;;5.53;3.50;;;;;;;;;;5012297;28;20518;-57
2021/04/05 11:42:22;;;;;;;5.25;3.20;;;;;;;;;;5011908;28;20083;-57
2021/04/05 11:44:49;;;;;;;5.03;3.15;;;;;;;;;;5012015;28;20037;-53
2021/04/05 11:47:17;;;;;;;5.95;3.70;;;;;;;;;;5011919;28;20145;-53
2021/04/05 11:49:43;;;;;;;7.90;3.95;;;;;;;;;;5011979;28;20033;-51
2021/04/05 11:52:27;;;;;;;6.55;4.20;;;;;;;;;;5011690;28;20037;-59
2021/04/05 11:54:56;;;;;;;5.57;3.63;;;;;;;;;;5014415;28;20030;-57
2021/04/05 11:57:26;;;;;;;7.03;3.50;;;;;;;;;;5015369;28;20026;-58
2021/04/05 11:59:57;;;;;;;6.88;3.75;;;;;;;;;;5015069;28;20038;-56
2021/04/05 12:02:26;;;;;;;6.68;4.20;;;;;;;;;;5015568;28;20064;-56
2021/04/05 12:05:02;;;;;;;5.82;3.40;;;;;;;;;;5015586;28;20026;-59
2021/04/05 12:07:28;;;;;;;4.88;3.40;;;;;;;;;;5015115;28;20033;-60
2021/04/05 12:09:54;;;;;;;4.95;3.00;;;;;;;;;;5015192;28;20021;-56
2021/04/05 12:12:22;;;;;;;6.03;3.58;;;;;;;;;;5015279;28;20380;-60
2021/04/05 12:14:53;;;;;;;5.20;3.42;;;;;;;;;;5015203;28;20032;-60
2021/04/05 12:17:20;;;;;;;6.72;3.40;;;;;;;;;;5015064;28;20034;-60
2021/04/05 12:19:48;;;;;;;5.82;3.72;;;;;;;;;;5015254;28;20457;-63
2021/04/05 12:22:14;;;;;;;7.05;3.95;;;;;;;;;;4997248;28;20450;-49
2021/04/05 12:24:41;;;;;;;6.00;3.53;;;;;;;;;;5015311;28;20416;-60
2021/04/05 12:27:09;;;;;;;5.00;3.38;;;;;;;;;;5014715;28;20037;-60
2021/04/05 12:29:35;;;;;;;5.40;3.60;;;;;;;;;;5015178;28;20029;-57
2021/04/05 12:32:03;;;;;;;6.55;3.60;;;;;;;;;;5015106;28;20447;-57
2021/04/05 12:34:34;;;;;;;4.40;2.80;;;;;;;;;;5015032;28;20104;-60
2021/04/05 12:37:01;;;;;;;4.80;3.25;;;;;;;;;;5014851;28;20430;-57
2021/04/05 12:39:34;;;;;;;5.00;2.80;;;;;;;;;;5014530;28;20022;-58
2021/04/05 12:42:00;;;;;;;;;;;;;;;;;;5015261;28;20353;-59
2021/04/05 12:44:30;;;;;;;5.82;3.03;;;;;;;;;;5014563;28;19921;-49
2021/04/05 12:46:58;;;;;;;5.30;3.08;;;;;;;;;;5014605;28;20056;-54
2021/04/05 12:49:28;;;;;;;4.70;3.17;;;;;;;;;;5014183;28;20034;-58
2021/04/05 12:51:59;;;;;;;4.93;3.05;;;;;;;;;;5014334;28;20547;-59
2021/04/05 12:54:27;;;;;;;4.50;2.42;;;;;;;;;;5014514;28;20030;-61
2021/04/05 12:56:54;;;;;;;4.72;2.60;;;;;;;;;;5014381;28;20026;-58
2021/04/05 12:59:21;;;;;;;4.22;2.50;;;;;;;;;;5013974;28;20029;-57
2021/04/05 13:01:55;;;;;;;5.22;2.75;;;;;;;;;;5014431;28;20048;-59
2021/04/05 13:04:23;;;;;;;5.22;2.78;;;;;;;;;;5014082;28;20109;-54
2021/04/05 13:07:10;;;;;;;4.43;2.53;;;;;;;;;;5014231;28;20104;-60
2021/04/05 13:09:38;;;;;;;4.20;2.70;;;;;;;;;;5014297;28;20034;-59
2021/04/05 13:12:08;;;;;;;4.85;2.65;;;;;;;;;;5014168;28;20025;-60
2021/04/05 13:14:35;;;;;;;5.13;3.22;;;;;;;;;;5014170;28;20030;-61
2021/04/05 13:17:10;;;;;;;5.13;2.95;;;;;;;;;;5013894;28;20420;-59
2021/04/05 13:19:39;;;;;;;4.22;2.58;;;;;;;;;;5014326;28;20100;-55
2021/04/05 13:22:11;;;;;;;4.55;2.58;;;;;;;;;;5013896;28;20033;-51
2021/04/05 13:24:41;;;;;;;4.10;2.38;;;;;;;;;;5014216;28;20033;-47
2021/04/05 13:27:08;;;;;;;3.88;2.38;;;;;;;;;;5013976;28;20033;-59
2021/04/05 13:29:36;;;;;;;3.55;2.00;;;;;;;;;;5014003;28;20056;-56
2021/04/05 13:32:09;;;;;;;3.88;2.30;;;;;;;;;;5013698;28;20022;-63
2021/04/05 13:34:37;;;;;;;3.85;2.50;;;;;;;;;;5013679;28;20109;-59
2021/04/05 13:37:08;;;;;;;5.13;2.58;;;;;;;;;;5013571;28;20456;-49
2021/04/05 13:39:34;;;;;;;4.47;2.40;;;;;;;;;;5013730;28;20110;-56
2021/04/05 13:42:01;;;;;;;5.10;2.45;;;;;;;;;;5013871;28;20029;-60
2021/04/05 13:44:29;;;;;;;4.00;2.40;;;;;;;;;;5013785;28;20112;-61
2021/04/05 13:46:59;;;;;;;21.00;10.70;;;;;;;;;;5013684;28;20029;-58
2021/04/05 13:49:28;;;;;;;5.20;2.65;;;;;;;;;;5013263;28;20091;-61
2021/04/05 13:51:56;;;;;;;4.80;3.00;;;;;;;;;;5013529;28;20030;-61
2021/04/05 13:54:23;;;;;;;4.20;2.50;;;;;;;;;;5013384;28;20026;-62
2021/04/05 13:56:55;;;;;;;4.03;2.40;;;;;;;;;;5013529;28;20036;-63
2021/04/05 13:59:21;;;;;;;5.10;2.50;;;;;;;;;;5012981;28;20529;-60
2021/04/05 14:01:48;;;;;;;4.40;2.80;;;;;;;;;;5012864;28;20025;-61
2021/04/05 14:04:14;;;;;;;4.55;2.83;;;;;;;;;;5012930;28;20041;-55
2021/04/05 14:06:43;;;;;;;3.80;2.50;;;;;;;;;;5013551;28;20026;-57
2021/04/05 14:09:16;;;;;;;3.63;2.30;;;;;;;;;;5013177;28;20338;-57
2021/04/05 14:11:48;;;;;;;3.67;2.10;;;;;;;;;;5013313;28;20356;-61
2021/04/05 14:14:15;;;;;;;4.63;2.50;;;;;;;;;;5013008;28;20026;-62
2021/04/05 14:17:04;;;;;;;22.48;11.25;;;;;;;;;;5012555;28;20048;-62
2021/04/05 14:19:39;;;;;;;8.20;4.03;;;;;;;;;;5012926;28;20435;-62
2021/04/05 14:22:10;;;;;;;7.43;3.47;;;;;;;;;;5012881;28;20026;-61
2021/04/05 14:24:47;;;;;;;6.15;2.92;;;;;;;;;;5012796;28;20033;-56
2021/04/05 14:27:18;;;;;;;5.13;2.47;;;;;;;;;;5012812;28;20124;-57
2021/04/05 14:29:48;;;;;;;3.85;2.22;;;;;;;;;;5012793;28;20033;-58
2021/04/05 14:32:15;;;;;;;5.82;2.55;;;;;;;;;;5013117;28;20025;-60
2021/04/05 14:34:46;;;;;;;3.70;2.30;;;;;;;;;;5012824;28;20053;-59
2021/04/05 14:37:18;;;;;;;3.97;2.30;;;;;;;;;;5012640;28;20419;-57
2021/04/05 14:39:48;;;;;;;3.63;2.22;;;;;;;;;;5012469;28;20022;-60
2021/04/05 14:42:18;;;;;;;4.75;2.25;;;;;;;;;;5012602;28;20034;-59
2021/04/05 14:44:47;;;;;;;4.13;2.28;;;;;;;;;;5012686;28;20104;-59
2021/04/05 14:47:17;;;;;;;3.88;2.15;;;;;;;;;;5012640;28;20548;-53
2021/04/05 14:49:49;;;;;;;3.80;2.00;;;;;;;;;;5012624;28;20117;-61
2021/04/05 14:52:16;;;;;;;4.32;2.30;;;;;;;;;;5012448;28;20030;-60